createdAt,value
2023-01-25T00:02:18.150Z,102231.78
2023-01-25T00:04:47.209Z,102235.38
2023-01-25T00:07:15.537Z,102232.34
2023-01-25T00:09:44.233Z,102237.78
2023-01-25T00:12:13.097Z,102232.16
2023-01-25T00:14:41.656Z,102227.13
2023-01-25T00:17:09.978Z,102209.19
2023-01-25T00:19:38.540Z,102231.34
2023-01-25T00:22:07.187Z,102219.78
2023-01-25T00:24:35.699Z,102217.06
2023-01-25T00:27:04.587Z,102223.31
2023-01-25T00:29:33.190Z,102226.84
2023-01-25T00:32:07.926Z,102218.00
2023-01-25T00:34:43.418Z,102212.59
2023-01-25T00:37:19.463Z,102211.66
2023-01-25T00:39:48.230Z,102220.50
2023-01-25T00:42:18.743Z,102217.84
2023-01-25T00:44:48.752Z,102216.13
2023-01-25T00:47:18.033Z,102214.31
2023-01-25T00:49:47.383Z,102212.50
2023-01-25T00:52:15.826Z,102212.59
2023-01-25T00:54:44.152Z,102215.34
2023-01-25T00:57:12.426Z,102212.72
2023-01-25T00:59:45.280Z,102211.81
2023-01-25T01:02:16.148Z,102218.84
2023-01-25T01:04:45.012Z,102211.66
2023-01-25T01:07:15.697Z,102204.53
2023-01-25T01:09:44.601Z,102209.16
2023-01-25T01:12:13.277Z,102208.22
2023-01-25T01:14:43.145Z,102205.63
2023-01-25T01:17:11.781Z,102198.56
2023-01-25T01:19:41.264Z,102201.38
2023-01-25T01:22:09.649Z,102197.03
2023-01-25T01:24:38.450Z,102203.22
2023-01-25T01:27:07.210Z,102200.63
2023-01-25T01:29:35.929Z,102213.84
2023-01-25T01:32:04.941Z,102215.59
2023-01-25T01:34:33.367Z,102209.28
2023-01-25T01:37:01.849Z,102210.94
2023-01-25T01:39:30.497Z,102210.00
2023-01-25T01:41:59.253Z,102207.34
2023-01-25T01:44:46.126Z,102205.63
2023-01-25T01:47:24.940Z,102199.50
2023-01-25T01:50:19.706Z,102196.97
2023-01-25T01:52:48.448Z,102182.97
2023-01-25T01:55:23.328Z,102188.41
2023-01-25T01:57:58.969Z,102181.56
2023-01-25T02:00:33.310Z,102188.72
2023-01-25T02:03:03.202Z,102189.75
2023-01-25T02:05:41.757Z,102195.97
2023-01-25T02:08:14.567Z,102193.47
2023-01-25T02:10:45.078Z,102189.88
2023-01-25T02:13:13.558Z,102188.94
2023-01-25T02:15:53.774Z,102185.28
2023-01-25T02:18:25.489Z,102189.88
2023-01-25T02:20:58.606Z,102180.00
2023-01-25T02:24:01.937Z,102164.13
2023-01-25T02:26:32.236Z,102165.69
2023-01-25T02:29:04.958Z,102171.03
2023-01-25T02:31:33.508Z,102164.94
2023-01-25T02:34:02.394Z,102162.34
2023-01-25T02:36:32.609Z,102154.38
2023-01-25T02:39:06.141Z,102159.44
2023-01-25T02:41:38.527Z,102150.47
2023-01-25T02:44:30.523Z,102142.69
2023-01-25T02:47:00.132Z,102143.47
2023-01-25T02:49:28.503Z,102139.88
2023-01-25T02:51:58.023Z,102145.94
2023-01-25T02:54:27.712Z,102146.78
2023-01-25T02:56:57.984Z,102133.28
2023-01-25T02:59:30.626Z,102139.44
2023-01-25T03:02:01.502Z,102142.88
2023-01-25T03:04:31.132Z,102140.22
2023-01-25T03:06:59.860Z,102143.72
2023-01-25T03:09:29.482Z,102146.34
2023-01-25T03:11:58.062Z,102132.16
2023-01-25T03:14:26.774Z,102124.25
2023-01-25T03:16:55.125Z,102130.38
2023-01-25T03:19:26.347Z,102129.56
2023-01-25T03:21:55.505Z,102131.28
2023-01-25T03:24:24.574Z,102126.78
2023-01-25T03:27:11.679Z,102137.25
2023-01-25T03:29:46.685Z,102138.94
2023-01-25T03:32:19.829Z,102137.88
2023-01-25T03:34:49.145Z,102136.84
2023-01-25T03:37:19.833Z,102135.78
2023-01-25T03:39:50.246Z,102125.16
2023-01-25T03:42:22.265Z,102126.81
2023-01-25T03:44:55.783Z,102131.19
2023-01-25T03:47:24.466Z,102125.75
2023-01-25T03:49:53.679Z,102118.72
2023-01-25T03:53:00.758Z,102114.16
2023-01-25T03:55:41.607Z,102105.41
2023-01-25T03:58:11.570Z,102111.59
2023-01-25T04:00:40.475Z,102111.28
2023-01-25T04:03:09.119Z,102100.84
2023-01-25T04:05:37.477Z,102100.03
2023-01-25T04:08:06.028Z,102103.72
2023-01-25T04:10:40.306Z,102105.44
2023-01-25T04:13:10.069Z,102102.78
2023-01-25T04:15:38.378Z,102105.44
2023-01-25T04:18:15.047Z,102101.06
2023-01-25T04:20:43.573Z,102096.59
2023-01-25T04:23:13.248Z,102102.91
2023-01-25T04:25:43.673Z,102097.75
2023-01-25T04:28:15.479Z,102091.50
2023-01-25T04:30:44.381Z,102092.56
2023-01-25T04:33:13.522Z,102096.28
2023-01-25T04:35:42.508Z,102083.47
2023-01-25T04:38:11.664Z,102084.88
2023-01-25T04:40:44.268Z,102077.78
2023-01-25T04:43:17.307Z,102079.53
2023-01-25T04:45:47.218Z,102069.44
2023-01-25T04:48:22.993Z,102073.03
2023-01-25T04:50:57.301Z,102074.69
2023-01-25T04:53:26.403Z,102074.69
2023-01-25T04:55:56.903Z,102066.06
2023-01-25T04:58:26.708Z,102064.41
2023-01-25T05:00:56.008Z,102066.91
2023-01-25T05:03:26.218Z,102065.06
2023-01-25T05:05:55.798Z,102069.56
2023-01-25T05:08:29.148Z,102061.06
2023-01-25T05:11:01.822Z,102065.53
2023-01-25T05:13:46.155Z,102061.63
2023-01-25T05:16:20.261Z,102068.75
2023-01-25T05:18:49.545Z,102061.19
2023-01-25T05:21:44.606Z,102068.22
2023-01-25T05:24:14.874Z,102063.63
2023-01-25T05:27:02.325Z,102061.84
2023-01-25T05:29:43.630Z,102061.19
